Time;durP1;ratioP1;P1;durP2;ratioP2;P2;SDS_P1;SDS_P2;PMS_P1;PMS_P2;Temp;Humidity;BMP_temperature;BMP_pressure;BME280_temperature;BME280_humidity;BME280_pressure;Samples;Min_cycle;Max_cycle;Signal;HPM_P1;HPM_P2
2022/03/14 00:02:17;;;;;;;7.60;4.20;;;;;;;4.46;21.73;101572.41;5044615;28;20018;-64
2022/03/14 00:04:42;;;;;;;5.70;3.08;;;;;;;4.46;21.99;101568.16;5044677;28;20036;-65
2022/03/14 00:07:08;;;;;;;5.38;3.10;;;;;;;4.46;21.92;101567.25;5044663;28;20060;-66
2022/03/14 00:09:33;;;;;;;5.55;2.80;;;;;;;4.46;22.02;101572.41;5044603;28;20025;-64
2022/03/14 00:11:58;;;;;;;3.47;2.13;;;;;;;4.75;21.81;101575.13;5044574;28;20037;-64
2022/03/14 00:14:28;;;;;;;6.65;2.97;;;;;;;4.43;22.24;101573.19;5044575;28;20335;-64
2022/03/14 00:16:56;;;;;;;4.22;2.10;;;;;;;4.55;22.13;101559.88;5043880;28;20021;-64
2022/03/14 00:19:22;;;;;;;4.75;2.58;;;;;;;4.51;22.22;101577.72;5044425;28;20056;-63
2022/03/14 00:21:49;;;;;;;8.57;4.18;;;;;;;4.51;22.31;101580.28;5044409;28;20025;-63
2022/03/14 00:24:15;;;;;;;7.20;3.88;;;;;;;4.59;22.55;101574.59;5044057;28;20028;-65
2022/03/14 00:26:40;;;;;;;7.20;3.85;;;;;;;4.44;22.46;101568.94;5044983;28;20029;-63
2022/03/14 00:29:06;;;;;;;5.68;3.55;;;;;;;4.68;22.17;101563.75;5044365;28;20048;-64
2022/03/14 00:31:32;;;;;;;4.53;2.22;;;;;;;4.84;22.08;101574.56;5044246;28;20021;-65
2022/03/14 00:33:57;;;;;;;4.70;2.70;;;;;;;4.89;22.22;101573.03;5044037;28;20025;-65
2022/03/14 00:36:25;;;;;;;5.22;3.03;;;;;;;4.91;22.12;101566.25;5043874;28;20032;-66
2022/03/14 00:38:51;;;;;;;6.72;3.90;;;;;;;4.71;22.33;101571.56;5026212;28;20031;-64
2022/03/14 00:41:16;;;;;;;2.03;1.73;;;;;;;4.76;22.44;101576.88;5043921;28;20051;-65
2022/03/14 00:43:43;;;;;;;6.97;2.40;;;;;;;4.75;22.30;101579.41;5043816;28;20053;-63
2022/03/14 00:46:09;;;;;;;4.07;2.17;;;;;;;4.65;22.59;101581.66;5043501;28;20026;-65
2022/03/14 00:48:35;;;;;;;6.50;3.58;;;;;;;4.55;22.85;101569.31;5043805;28;20021;-65
2022/03/14 00:51:02;;;;;;;7.63;3.55;;;;;;;4.61;22.97;101572.09;5043707;28;20045;-64
2022/03/14 00:53:28;;;;;;;4.65;2.38;;;;;;;4.62;22.85;101578.97;5043532;28;20079;-63
2022/03/14 00:55:53;;;;;;;6.38;3.17;;;;;;;4.61;22.94;101571.19;5043620;28;20029;-64
2022/03/14 00:58:19;;;;;;;5.10;2.45;;;;;;;4.82;22.96;101581.38;5043703;28;20089;-66
2022/03/14 01:00:47;;;;;;;5.43;2.30;;;;;;;4.68;23.07;101584.31;5043823;28;20021;-64
2022/03/14 01:03:13;;;;;;;6.82;3.42;;;;;;;4.61;23.04;101566.06;5043385;28;20034;-64
2022/03/14 01:05:38;;;;;;;5.75;3.35;;;;;;;4.25;23.73;101572.53;5043615;28;20037;-63
2022/03/14 01:08:06;;;;;;;7.13;2.72;;;;;;;4.50;23.83;101578.53;5025703;28;20025;-65
2022/03/14 01:10:32;;;;;;;9.98;4.20;;;;;;;4.37;23.87;101577.22;5043370;28;20052;-64
2022/03/14 01:12:57;;;;;;;5.82;3.20;;;;;;;4.56;23.96;101571.03;5043308;28;20033;-65
2022/03/14 01:15:23;;;;;;;4.35;2.40;;;;;;;4.38;24.11;101579.00;5043639;28;20060;-65
2022/03/14 01:17:48;;;;;;;11.50;3.15;;;;;;;4.31;24.18;101558.19;5043301;28;20033;-67
2022/03/14 01:20:13;;;;;;;10.40;3.67;;;;;;;4.44;24.28;101574.06;5043550;28;20029;-65
2022/03/14 01:22:39;;;;;;;5.38;3.35;;;;;;;4.43;24.28;101575.75;5043178;28;20025;-64
2022/03/14 01:25:05;;;;;;;5.28;2.97;;;;;;;4.42;24.39;101568.00;5043464;28;20034;-65
2022/03/14 01:27:31;;;;;;;6.80;3.65;;;;;;;4.59;24.49;101577.19;5043432;28;20052;-65
2022/03/14 01:29:56;;;;;;;7.50;4.22;;;;;;;4.19;24.87;101578.28;5042356;28;20034;-64
2022/03/14 01:32:21;;;;;;;5.53;2.97;;;;;;;4.29;25.06;101576.94;5043135;28;20382;-66
2022/03/14 01:34:47;;;;;;;5.90;3.67;;;;;;;4.17;25.17;101580.81;5043248;28;20484;-65
2022/03/14 01:37:12;;;;;;;3.38;2.15;;;;;;;4.29;25.23;101582.09;5042831;28;20072;-65
2022/03/14 01:39:38;;;;;;;6.00;3.20;;;;;;;4.24;25.57;101573.31;5043280;28;20026;-66
2022/03/14 01:42:03;;;;;;;5.22;3.15;;;;;;;4.27;25.47;101556.31;5043065;28;20147;-65
2022/03/14 01:44:30;;;;;;;7.55;3.22;;;;;;;4.34;25.66;101581.44;5042884;28;20036;-64
2022/03/14 01:46:56;;;;;;;5.18;2.58;;;;;;;4.26;25.78;101558.84;5043004;28;20139;-67
2022/03/14 01:49:22;;;;;;;8.27;4.07;;;;;;;4.10;26.08;101581.41;5043357;28;20033;-64
2022/03/14 01:51:52;;;;;;;5.40;3.42;;;;;;;4.20;26.14;101575.78;5042795;28;20017;-66
2022/03/14 01:54:18;;;;;;;6.78;3.90;;;;;;;4.11;26.21;101580.59;5042852;28;20044;-64
2022/03/14 01:56:44;;;;;;;11.27;3.70;;;;;;;3.96;26.76;101586.03;5043349;28;20026;-65
2022/03/14 01:59:09;;;;;;;4.72;3.15;;;;;;;4.15;26.59;101576.44;5043207;28;20079;-65
2022/03/14 02:01:35;;;;;;;4.72;2.85;;;;;;;4.08;26.84;101565.94;5042828;28;20105;-67
2022/03/14 02:04:00;;;;;;;8.48;3.72;;;;;;;4.16;26.88;101578.19;5042976;28;20021;-65
2022/03/14 02:06:28;;;;;;;6.78;3.53;;;;;;;4.16;27.11;101584.22;5042849;28;20021;-65
2022/03/14 02:08:55;;;;;;;5.78;3.63;;;;;;;3.99;27.46;101569.84;5042944;28;20034;-66
2022/03/14 02:11:20;;;;;;;4.80;2.38;;;;;;;4.03;27.48;101585.44;5042902;28;20038;-65
2022/03/14 02:13:45;;;;;;;3.85;3.03;;;;;;;3.87;27.87;101594.25;5042722;28;20026;-65
2022/03/14 02:16:11;;;;;;;7.63;3.72;;;;;;;4.00;27.90;101566.47;5042577;28;20025;-66
2022/03/14 02:18:36;;;;;;;5.50;3.25;;;;;;;3.91;28.19;101583.31;5042952;28;20087;-66
2022/03/14 02:21:02;;;;;;;10.23;3.85;;;;;;;4.03;28.24;101589.69;5042797;28;20457;-65
2022/03/14 02:23:27;;;;;;;9.18;5.13;;;;;;;3.81;28.60;101596.59;5042845;28;20030;-64
2022/03/14 02:25:55;;;;;;;5.65;3.40;;;;;;;3.82;28.83;101585.50;5042829;28;20427;-67
2022/03/14 02:28:22;;;;;;;5.60;3.53;;;;;;;3.96;28.82;101593.75;5042549;28;20033;-66
2022/03/14 02:30:49;;;;;;;5.40;3.25;;;;;;;4.02;28.83;101587.97;5042687;28;20031;-65
2022/03/14 02:33:14;;;;;;;6.68;3.75;;;;;;;3.91;28.89;101583.31;5042521;28;20465;-65
2022/03/14 02:35:42;;;;;;;6.32;4.05;;;;;;;3.66;29.34;101595.19;5042772;28;20035;-65
2022/03/14 02:38:12;;;;;;;6.15;3.58;;;;;;;3.70;29.53;101579.09;5042593;28;20229;-66
2022/03/14 02:40:47;;;;;;;4.93;2.70;;;;;;;3.90;29.55;101570.41;5043581;28;20029;-68
2022/03/14 02:43:15;;;;;;;6.38;3.28;;;;;;;3.75;29.73;101581.84;5046193;28;20017;-65
2022/03/14 02:45:42;;;;;;;9.65;4.60;;;;;;;3.82;29.86;101577.78;5046097;28;20057;-67
2022/03/14 02:48:08;;;;;;;9.77;3.72;;;;;;;3.56;30.20;101575.94;5045878;28;20026;-66
2022/03/14 02:50:35;;;;;;;10.18;4.57;;;;;;;3.69;30.24;101579.03;5046039;28;20032;-66
2022/03/14 02:53:00;;;;;;;8.90;4.57;;;;;;;3.75;30.15;101578.38;5045743;28;20072;-65
2022/03/14 02:55:26;;;;;;;8.43;4.90;;;;;;;3.75;30.54;101576.69;5046082;28;20025;-67
2022/03/14 02:57:52;;;;;;;5.43;3.50;;;;;;;3.71;30.65;101569.66;5046029;28;20071;-68
2022/03/14 03:00:18;;;;;;;14.32;4.88;;;;;;;3.65;30.61;101575.47;5045965;28;20029;-65
2022/03/14 03:02:43;;;;;;;7.47;3.92;;;;;;;3.42;31.05;101570.28;5045596;28;20025;-67
2022/03/14 03:05:09;;;;;;;7.05;3.58;;;;;;;3.66;31.14;101573.78;5046165;28;20021;-66
2022/03/14 03:07:37;;;;;;;7.70;4.07;;;;;;;3.59;31.12;101562.38;5045827;28;20021;-66
2022/03/14 03:10:04;;;;;;;8.10;3.65;;;;;;;3.65;31.37;101570.31;5045791;28;20031;-65
2022/03/14 03:12:30;;;;;;;4.40;4.00;;;;;;;3.41;31.85;101571.09;5045659;28;20263;-67
2022/03/14 03:14:56;;;;;;;5.68;3.40;;;;;;;3.39;32.04;101559.00;5045344;28;20500;-66
2022/03/14 03:17:21;;;;;;;7.25;3.67;;;;;;;3.50;31.86;101562.03;5045470;28;20030;-65
2022/03/14 03:19:46;;;;;;;10.95;4.22;;;;;;;3.53;32.23;101563.00;5045656;28;20025;-66
2022/03/14 03:22:12;;;;;;;8.85;4.63;;;;;;;3.41;32.37;101557.38;5045482;28;20014;-67
2022/03/14 03:24:37;;;;;;;8.93;4.20;;;;;;;3.59;32.24;101544.41;5045541;28;20049;-68
2022/03/14 03:27:03;;;;;;;8.27;4.97;;;;;;;3.42;32.65;101552.31;5044945;28;20049;-66
2022/03/14 03:29:28;;;;;;;7.20;4.10;;;;;;;3.33;32.84;101549.38;5044444;28;20017;-65
2022/03/14 03:31:54;;;;;;;5.75;2.78;;;;;;;3.49;32.93;101552.53;5044888;28;20024;-66
2022/03/14 03:34:19;;;;;;;10.05;5.85;;;;;;;3.42;33.19;101547.16;5045254;28;20025;-66
2022/03/14 03:36:44;;;;;;;13.68;5.25;;;;;;;3.31;33.45;101554.44;5044991;28;20072;-65
2022/03/14 03:39:10;;;;;;;9.45;4.15;;;;;;;3.46;33.29;101554.19;5045136;28;20036;-66
2022/03/14 03:41:35;;;;;;;9.63;4.85;;;;;;;3.19;33.86;101567.69;5027212;28;20428;-65
2022/03/14 03:44:00;;;;;;;4.32;3.22;;;;;;;3.08;34.01;101559.50;5045047;28;20029;-71
2022/03/14 03:46:26;;;;;;;7.70;4.80;;;;;;;3.12;34.06;101560.53;5044591;28;20026;-62
2022/03/14 03:48:52;;;;;;;12.57;4.57;;;;;;;3.20;34.22;101560.84;5045012;28;20018;-63
2022/03/14 03:51:17;;;;;;;7.18;3.30;;;;;;;3.05;34.77;101564.53;5044913;28;20297;-62
2022/03/14 03:53:43;;;;;;;5.78;3.90;;;;;;;3.06;35.02;101563.72;5043942;28;20108;-62
2022/03/14 03:56:08;;;;;;;4.93;3.50;;;;;;;3.11;34.72;101571.59;5044780;28;20096;-62
2022/03/14 03:58:34;;;;;;;8.95;5.30;;;;;;;3.08;35.14;101559.50;5044711;28;20033;-63
2022/03/14 04:00:59;;;;;;;9.35;4.53;;;;;;;3.21;35.12;101575.44;5044862;28;20029;-62
2022/03/14 04:03:24;;;;;;;14.25;7.05;;;;;;;3.14;35.21;101575.97;5044406;28;20022;-63
2022/03/14 04:05:50;;;;;;;5.85;3.58;;;;;;;3.02;35.60;101566.09;5044653;28;20036;-62
2022/03/14 04:08:16;;;;;;;7.93;3.80;;;;;;;2.91;35.88;101571.66;5044684;28;20056;-63
2022/03/14 04:10:43;;;;;;;5.07;3.17;;;;;;;2.73;36.13;101559.78;5044736;28;20049;-62
2022/03/14 04:13:10;;;;;;;10.93;4.90;;;;;;;3.14;35.61;101576.88;5044420;28;20088;-62
2022/03/14 04:15:43;;;;;;;9.13;5.35;;;;;;;3.01;35.78;101579.72;5044536;28;20025;-62
2022/03/14 04:18:09;;;;;;;16.55;7.47;;;;;;;2.73;36.23;101566.63;5044218;28;20022;-63
2022/03/14 04:20:36;;;;;;;9.18;5.13;;;;;;;2.73;36.54;101564.91;5044551;28;20081;-64
2022/03/14 04:23:01;;;;;;;10.13;5.30;;;;;;;2.71;36.82;101565.69;5044296;28;20028;-62
2022/03/14 04:25:26;;;;;;;10.02;4.65;;;;;;;2.48;37.36;101571.56;5044201;28;20025;-62
2022/03/14 04:27:52;;;;;;;14.27;7.30;;;;;;;2.50;37.17;101576.75;5044530;28;20352;-62
2022/03/14 04:30:17;;;;;;;12.85;7.30;;;;;;;2.43;37.60;101575.59;5044187;28;20636;-62
2022/03/14 04:32:43;;;;;;;12.50;6.13;;;;;;;2.44;37.68;101574.81;5025948;28;20026;-63
2022/03/14 04:35:09;;;;;;;13.88;6.22;;;;;;;2.31;37.89;101581.06;5043963;28;20378;-63
2022/03/14 04:37:34;;;;;;;11.77;6.50;;;;;;;2.40;38.02;101570.34;5043850;28;20069;-62
2022/03/14 04:39:59;;;;;;;13.05;6.60;;;;;;;2.23;38.19;101577.28;5044083;28;20030;-62
2022/03/14 04:42:25;;;;;;;13.57;7.47;;;;;;;2.29;38.43;101576.66;5043992;28;20055;-63
2022/03/14 04:44:51;;;;;;;13.43;6.93;;;;;;;2.15;38.56;101574.38;5043725;28;20017;-62
2022/03/14 04:47:17;;;;;;;16.05;7.85;;;;;;;2.11;39.08;101585.28;5043656;28;20358;-61
2022/03/14 04:49:42;;;;;;;9.40;5.10;;;;;;;2.09;38.93;101585.22;5043919;28;20025;-62
2022/03/14 04:52:08;;;;;;;11.15;6.95;;;;;;;2.00;39.39;101566.00;5043780;28;20029;-62
2022/03/14 04:54:34;;;;;;;11.85;6.03;;;;;;;2.12;39.33;101594.75;5026193;28;20026;-62
2022/03/14 04:56:59;;;;;;;14.00;8.32;;;;;;;2.20;39.36;101593.41;5043781;28;20018;-62
2022/03/14 04:59:25;;;;;;;7.95;5.05;;;;;;;2.28;39.56;101587.75;5043846;28;20032;-62
2022/03/14 05:01:50;;;;;;;16.02;6.65;;;;;;;2.59;39.24;101579.72;5043488;28;20021;-62
2022/03/14 05:04:15;;;;;;;9.35;4.75;;;;;;;2.66;39.26;101588.56;5043244;28;20028;-63
2022/03/14 05:06:42;;;;;;;12.90;6.13;;;;;;;2.53;39.40;101581.13;5025862;28;20025;-63
2022/03/14 05:09:07;;;;;;;7.03;4.78;;;;;;;2.62;39.54;101584.09;5043460;28;20515;-64
2022/03/14 05:11:32;;;;;;;12.00;5.65;;;;;;;2.62;39.60;101580.66;5042490;28;20022;-63
2022/03/14 05:13:59;;;;;;;13.50;6.03;;;;;;;2.74;39.68;101581.19;5042104;28;20099;-64
2022/03/14 05:16:25;;;;;;;10.02;4.55;;;;;;;2.66;39.77;101588.56;5042130;28;20085;-63
2022/03/14 05:18:50;;;;;;;7.13;4.90;;;;;;;2.73;39.80;101584.59;5043160;28;20793;-63
2022/03/14 05:21:16;;;;;;;11.85;6.05;;;;;;;2.77;39.79;101588.13;5043424;28;20017;-64
2022/03/14 05:23:41;;;;;;;8.15;4.40;;;;;;;2.71;40.08;101589.66;5043414;28;20025;-64
2022/03/14 05:26:06;;;;;;;15.02;4.80;;;;;;;2.73;39.79;101593.13;5043438;28;20028;-66
2022/03/14 05:28:32;;;;;;;10.48;5.25;;;;;;;2.47;40.21;101603.16;5043371;28;20049;-62
2022/03/14 05:30:58;;;;;;;12.05;5.22;;;;;;;2.51;40.61;101598.16;5043248;28;20033;-65
2022/03/14 05:33:24;;;;;;;9.05;5.15;;;;;;;2.80;40.00;101601.97;5043023;28;20107;-66
2022/03/14 05:35:50;;;;;;;12.02;7.45;;;;;;;2.50;40.36;101601.50;5043087;28;20025;-64
2022/03/14 05:38:15;;;;;;;11.85;5.85;;;;;;;2.66;40.41;101611.63;5043000;28;20255;-62
2022/03/14 05:40:41;;;;;;;15.50;8.63;;;;;;;2.63;40.63;101606.38;5042666;28;20051;-63
2022/03/14 05:43:08;;;;;;;9.35;5.20;;;;;;;2.64;40.73;101600.44;5043082;28;20021;-62
2022/03/14 05:45:34;;;;;;;8.32;5.20;;;;;;;2.77;40.56;101601.84;5043215;28;20029;-62
2022/03/14 05:48:00;;;;;;;7.70;4.90;;;;;;;3.00;40.09;101603.63;5025427;28;20148;-63
2022/03/14 05:50:26;;;;;;;8.10;4.70;;;;;;;2.92;40.31;101596.50;5043335;28;20511;-62
2022/03/14 05:52:52;;;;;;;11.55;5.50;;;;;;;3.11;39.78;101602.41;5043001;28;20501;-64
2022/03/14 05:55:17;;;;;;;12.98;7.07;;;;;;;3.13;39.75;101603.31;5042918;28;20025;-61
2022/03/14 05:57:42;;;;;;;9.38;4.68;;;;;;;3.37;39.50;101601.72;5043166;28;20029;-63
2022/03/14 06:00:09;;;;;;;14.38;7.60;;;;;;;3.24;39.54;101597.78;5042203;28;20037;-62
2022/03/14 06:02:36;;;;;;;12.00;5.68;;;;;;;3.21;39.90;101598.53;5041958;28;20040;-63
2022/03/14 06:05:01;;;;;;;11.98;6.00;;;;;;;3.62;39.15;101595.88;5042906;28;20026;-63
2022/03/14 06:07:27;;;;;;;15.43;7.78;;;;;;;3.46;39.36;101600.41;5042971;28;20025;-62
2022/03/14 06:09:52;;;;;;;12.93;7.07;;;;;;;3.84;38.67;101591.56;5042888;28;20029;-62
2022/03/14 06:12:29;;;;;;;15.23;7.25;;;;;;;3.82;38.62;101582.91;5043128;28;20029;-61
2022/03/14 06:14:56;;;;;;;11.45;6.05;;;;;;;3.68;39.10;101596.13;5042988;28;20048;-62
2022/03/14 06:17:22;;;;;;;12.60;7.10;;;;;;;3.38;39.73;101594.09;5046416;28;20507;-61
2022/03/14 06:19:48;;;;;;;11.85;6.53;;;;;;;3.91;38.89;101598.72;5046767;28;20049;-62
2022/03/14 06:22:18;;;;;;;11.90;8.13;;;;;;;3.77;39.21;101595.59;5046714;28;20021;-62
2022/03/14 06:24:46;;;;;;;9.38;6.05;;;;;;;4.16;38.29;101585.91;5046469;28;20024;-63
2022/03/14 06:27:12;;;;;;;12.07;5.57;;;;;;;4.28;38.13;101585.50;5046570;28;20025;-63
2022/03/14 06:29:37;;;;;;;15.00;7.05;;;;;;;4.21;38.25;101590.41;5046203;28;20022;-63
2022/03/14 06:32:04;;;;;;;11.25;6.00;;;;;;;4.38;38.20;101587.56;5046157;28;20103;-63
2022/03/14 06:34:30;;;;;;;12.45;6.60;;;;;;;4.43;37.96;101592.88;5046401;28;20029;-63
2022/03/14 06:36:56;;;;;;;15.77;9.63;;;;;;;4.19;38.78;101594.59;5028286;28;20055;-63
2022/03/14 06:39:21;;;;;;;18.13;10.27;;;;;;;4.56;38.02;101589.94;5046181;28;20029;-63
2022/03/14 06:41:47;;;;;;;18.55;9.50;;;;;;;4.70;38.13;101584.38;5046508;28;20116;-64
2022/03/14 06:44:14;;;;;;;13.80;5.70;;;;;;;5.17;36.96;101602.28;5046223;28;20053;-63
2022/03/14 06:46:40;;;;;;;19.92;11.20;;;;;;;4.99;37.52;101599.06;5046132;28;20109;-63
2022/03/14 06:49:06;;;;;;;13.73;7.72;;;;;;;5.39;36.67;101590.09;5046233;28;20036;-63
2022/03/14 06:51:32;;;;;;;23.58;11.55;;;;;;;5.31;37.20;101601.84;5046069;28;20076;-63
2022/03/14 06:53:57;;;;;;;20.52;10.70;;;;;;;5.56;36.35;101598.38;5046022;28;20441;-63
2022/03/14 06:56:23;;;;;;;19.23;10.80;;;;;;;6.00;35.32;101593.66;5046202;28;20029;-63
2022/03/14 06:58:49;;;;;;;22.35;13.20;;;;;;;5.63;36.60;101580.53;5046169;28;20037;-63
2022/03/14 07:01:14;;;;;;;12.82;7.90;;;;;;;6.02;35.92;101592.88;5045974;28;20021;-63
2022/03/14 07:03:39;;;;;;;13.02;8.02;;;;;;;6.29;35.15;101591.09;5045604;28;20032;-63
2022/03/14 07:06:05;;;;;;;14.45;7.97;;;;;;;6.22;35.23;101600.34;5045940;28;20028;-63
2022/03/14 07:08:30;;;;;;;19.40;8.38;;;;;;;6.40;35.22;101601.72;5045981;28;20056;-63
2022/03/14 07:10:56;;;;;;;15.23;7.13;;;;;;;6.67;34.82;101606.78;5045677;28;20025;-63
2022/03/14 07:13:21;;;;;;;21.77;11.30;;;;;;;6.90;33.98;101603.91;5044939;28;20465;-62
2022/03/14 07:15:46;;;;;;;21.55;11.75;;;;;;;6.98;34.95;101614.44;5045481;28;20029;-62
2022/03/14 07:18:12;;;;;;;20.85;12.13;;;;;;;7.43;33.65;101619.84;5045110;28;20063;-63
2022/03/14 07:20:39;;;;;;;15.35;8.13;;;;;;;7.90;32.97;101610.59;5045240;28;20497;-62
2022/03/14 07:23:06;;;;;;;18.73;10.73;;;;;;;8.01;32.92;101610.81;5045274;28;20018;-63
2022/03/14 07:25:34;;;;;;;21.25;11.25;;;;;;;8.31;32.56;101605.41;5045193;28;20079;-61
2022/03/14 07:28:03;;;;;;;21.25;12.85;;;;;;;8.43;31.88;101589.25;5044927;28;20080;-62
2022/03/14 07:30:28;;;;;;;13.93;7.60;;;;;;;9.08;30.33;101606.88;5044895;28;20029;-62
2022/03/14 07:32:54;;;;;;;18.15;10.05;;;;;;;8.91;30.56;101612.59;5044681;28;20025;-62
2022/03/14 07:35:20;;;;;;;18.77;9.45;;;;;;;8.92;30.36;101618.66;5044777;28;20441;-62
2022/03/14 07:37:46;;;;;;;21.63;12.35;;;;;;;8.84;30.59;101615.06;5044797;28;20076;-62
2022/03/14 07:40:13;;;;;;;25.13;13.75;;;;;;;8.84;30.85;101612.47;5044641;28;20100;-62
2022/03/14 07:42:49;;;;;;;16.83;11.02;;;;;;;9.32;31.37;101622.78;5044897;28;20017;-62
2022/03/14 07:45:16;;;;;;;19.02;12.50;;;;;;;9.75;28.86;101620.88;5044775;28;20021;-62
2022/03/14 07:47:43;;;;;;;25.45;12.15;;;;;;;9.50;29.26;101638.66;5044490;28;20026;-63
2022/03/14 07:50:11;;;;;;;19.40;10.75;;;;;;;9.49;29.40;101630.84;5044496;28;20029;-63
2022/03/14 07:52:37;;;;;;;22.08;11.85;;;;;;;9.28;30.30;101632.25;5044533;28;20048;-63
2022/03/14 07:55:07;;;;;;;20.05;11.07;;;;;;;9.45;29.28;101635.09;5044409;28;20036;-63
2022/03/14 07:57:33;;;;;;;19.88;12.00;;;;;;;9.54;28.78;101642.16;5044660;28;20014;-62
2022/03/14 08:00:05;;;;;;;22.85;12.73;;;;;;;9.13;29.43;101644.09;5044369;28;20036;-62
2022/03/14 08:02:30;;;;;;;20.17;13.02;;;;;;;9.10;29.65;101643.16;5044272;28;20017;-63
2022/03/14 08:04:55;;;;;;;19.30;12.25;;;;;;;9.11;29.85;101639.72;5044091;28;20600;-62
2022/03/14 08:07:21;;;;;;;22.08;12.73;;;;;;;9.26;30.10;101636.53;5044104;28;20021;-62
2022/03/14 08:09:50;;;;;;;17.75;10.73;;;;;;;9.61;29.14;101624.97;5044269;28;20073;-62
2022/03/14 08:12:16;;;;;;;20.73;11.77;;;;;;;9.58;29.16;101630.13;5044114;28;20026;-62
2022/03/14 08:14:42;;;;;;;24.45;12.38;;;;;;;9.54;28.94;101617.09;5044001;28;20049;-62
2022/03/14 08:17:07;;;;;;;25.40;13.38;;;;;;;9.45;29.26;101613.50;5043829;28;20037;-62
2022/03/14 08:19:34;;;;;;;20.25;12.07;;;;;;;9.50;29.10;101617.91;5043961;28;20108;-62
2022/03/14 08:22:01;;;;;;;16.13;7.63;;;;;;;9.97;28.22;101622.91;5044392;28;20029;-63
2022/03/14 08:24:26;;;;;;;22.65;13.02;;;;;;;9.71;28.69;101621.69;5044197;28;20052;-63
2022/03/14 08:26:53;;;;;;;19.80;11.63;;;;;;;9.79;28.22;101624.38;5044205;28;20033;-62
2022/03/14 08:29:18;;;;;;;21.70;12.65;;;;;;;9.63;29.04;101612.91;5043781;28;20036;-61
2022/03/14 08:31:44;;;;;;;20.40;10.15;;;;;;;10.07;28.04;101616.97;5043696;28;20029;-61
2022/03/14 08:34:11;;;;;;;18.83;11.60;;;;;;;10.25;27.15;101607.69;5044162;28;20059;-62
2022/03/14 08:36:37;;;;;;;23.45;11.68;;;;;;;10.14;27.15;101602.38;5044424;28;20057;-61
2022/03/14 08:39:04;;;;;;;17.23;8.75;;;;;;;10.07;27.75;101616.09;5043891;28;20032;-62
2022/03/14 08:41:30;;;;;;;19.10;10.73;;;;;;;10.20;27.80;101619.72;5044319;28;20078;-62
2022/03/14 08:43:55;;;;;;;17.52;11.35;;;;;;;10.38;27.62;101619.94;5044249;28;20025;-61
2022/03/14 08:46:21;;;;;;;17.45;9.88;;;;;;;10.53;27.11;101610.63;5044030;28;20439;-62
2022/03/14 08:48:46;;;;;;;19.33;11.27;;;;;;;10.58;27.47;101615.88;5043822;28;20048;-62
2022/03/14 08:51:11;;;;;;;17.63;10.40;;;;;;;11.01;27.21;101611.13;5043799;28;20036;-62
2022/03/14 08:53:37;;;;;;;22.88;12.10;;;;;;;11.22;26.63;101616.50;5043873;28;20093;-61
2022/03/14 08:56:03;;;;;;;18.60;9.43;;;;;;;11.47;26.54;101612.34;5043756;28;20036;-61
2022/03/14 08:58:29;;;;;;;20.92;11.55;;;;;;;11.63;26.20;101622.84;5043569;28;20513;-61
2022/03/14 09:00:57;;;;;;;20.25;11.93;;;;;;;11.85;26.25;101618.66;5043502;28;20028;-61
2022/03/14 09:03:22;;;;;;;18.17;11.35;;;;;;;12.29;25.98;101612.81;5043135;28;20068;-62
2022/03/14 09:05:48;;;;;;;19.48;11.30;;;;;;;12.81;25.04;101614.69;5043175;28;20587;-61
2022/03/14 09:08:13;;;;;;;25.65;11.95;;;;;;;13.13;23.86;101610.41;5043280;28;20025;-62
2022/03/14 09:10:41;;;;;;;19.30;12.07;;;;;;;13.06;24.30;101614.75;5043201;28;20033;-61
2022/03/14 09:13:07;;;;;;;18.10;10.65;;;;;;;13.38;23.30;101606.06;5042742;28;20025;-61
2022/03/14 09:15:33;;;;;;;21.92;12.15;;;;;;;13.18;23.54;101599.97;5042923;28;20089;-61
2022/03/14 09:18:03;;;;;;;19.70;11.68;;;;;;;13.18;23.56;101615.63;5042813;28;20370;-62
2022/03/14 09:20:30;;;;;;;16.42;9.43;;;;;;;13.60;22.74;101605.19;5043094;28;20025;-62
2022/03/14 09:22:56;;;;;;;9.55;5.55;;;;;;;13.73;22.67;101606.91;5042889;28;20017;-62
2022/03/14 09:25:22;;;;;;;15.77;10.85;;;;;;;13.57;22.47;101606.06;5042704;28;20081;-61
2022/03/14 09:27:49;;;;;;;17.70;9.32;;;;;;;13.73;22.49;101599.06;5042908;28;20091;-62
2022/03/14 09:30:15;;;;;;;17.35;10.93;;;;;;;13.71;22.63;101605.16;5042838;28;20017;-61
2022/03/14 09:32:41;;;;;;;17.63;10.25;;;;;;;14.12;21.90;101598.09;5042504;28;20034;-61
2022/03/14 09:35:08;;;;;;;17.17;10.07;;;;;;;14.43;21.15;101605.75;5042648;28;20045;-61
2022/03/14 09:37:36;;;;;;;17.38;10.60;;;;;;;14.32;21.43;101600.59;5042136;28;20054;-61
2022/03/14 09:40:05;;;;;;;16.88;10.93;;;;;;;14.35;21.36;101597.09;5041955;28;20017;-61
2022/03/14 09:42:35;;;;;;;21.55;11.15;;;;;;;14.66;20.61;101591.69;5042052;28;20021;-62
2022/03/14 09:45:04;;;;;;;19.65;11.55;;;;;;;14.74;21.18;101594.25;5041713;28;20033;-61
2022/03/14 09:47:29;;;;;;;15.85;10.60;;;;;;;15.47;19.76;101591.06;5041706;28;20057;-60
2022/03/14 09:49:59;;;;;;;15.98;9.43;;;;;;;15.39;19.28;101589.41;5041983;28;20036;-62
2022/03/14 09:52:25;;;;;;;14.50;8.88;;;;;;;15.49;19.24;101593.69;5045106;28;20017;-60
2022/03/14 09:54:51;;;;;;;13.43;6.78;;;;;;;15.48;19.09;101595.41;5045172;28;20358;-60
2022/03/14 09:57:16;;;;;;;18.42;9.48;;;;;;;15.33;19.44;101593.81;5045211;28;20022;-62
2022/03/14 09:59:42;;;;;;;17.90;9.43;;;;;;;15.59;19.38;101600.53;5045127;28;20025;-61
2022/03/14 10:02:12;;;;;;;16.73;8.48;;;;;;;15.96;18.52;101606.25;5044910;28;20018;-61
2022/03/14 10:04:37;;;;;;;15.80;10.27;;;;;;;15.83;18.76;101601.16;5044890;28;20571;-61
2022/03/14 10:07:03;;;;;;;14.27;7.53;;;;;;;15.94;18.57;101602.78;5045261;28;20033;-61
2022/03/14 10:09:28;;;;;;;19.90;10.52;;;;;;;15.61;19.40;101603.13;5044849;28;20033;-62
2022/03/14 10:11:56;;;;;;;15.35;9.63;;;;;;;16.21;19.00;101600.75;5044964;28;20109;-62
2022/03/14 10:14:22;;;;;;;11.95;7.93;;;;;;;16.66;18.61;101607.13;5045050;28;20315;-63
2022/03/14 10:16:47;;;;;;;13.55;9.20;;;;;;;16.85;18.28;101600.69;5044961;28;20052;-61
2022/03/14 10:19:20;;;;;;;13.23;8.98;;;;;;;16.89;18.32;101603.28;5045100;28;20026;-61
2022/03/14 10:21:46;;;;;;;15.15;7.97;;;;;;;16.53;18.79;101598.56;5044976;28;20029;-62
2022/03/14 10:24:13;;;;;;;16.60;9.18;;;;;;;16.59;18.84;101609.84;5044828;28;20032;-61
2022/03/14 10:26:44;;;;;;;16.30;8.85;;;;;;;16.66;18.82;101604.50;5044862;28;20025;-61
2022/03/14 10:29:13;;;;;;;14.05;8.57;;;;;;;16.97;18.56;101604.91;5044878;28;20055;-61
2022/03/14 10:31:39;;;;;;;15.38;9.32;;;;;;;16.96;18.72;101599.69;5044556;28;20013;-61
2022/03/14 10:34:04;;;;;;;15.02;8.95;;;;;;;16.99;18.99;101604.88;5044676;28;20049;-62
2022/03/14 10:36:51;;;;;;;14.77;8.18;;;;;;;17.27;18.55;101611.47;5006330;28;1103373;-62
2022/03/14 10:39:30;;;;;;;11.70;6.72;;;;;;;17.57;18.31;101612.66;5046043;28;20041;-62
2022/03/14 10:42:04;;;;;;;9.00;6.05;;;;;;;17.64;17.86;101599.41;5045952;28;20101;-62
2022/03/14 10:44:31;;;;;;;12.60;8.35;;;;;;;17.11;18.48;101603.81;5045876;28;20060;-62
2022/03/14 10:46:59;;;;;;;11.20;5.55;;;;;;;17.31;18.11;101603.50;5027729;28;20021;-62
2022/03/14 10:49:43;;;;;;;9.75;5.10;;;;;;;16.83;18.36;101588.50;5044364;28;20017;-62
2022/03/14 10:52:10;;;;;;;7.10;4.00;;;;;;;16.68;18.67;101594.84;5045536;28;20462;-62
2022/03/14 10:54:37;;;;;;;14.68;7.55;;;;;;;16.34;19.22;101597.06;5045521;28;20051;-63
2022/03/14 10:57:04;;;;;;;14.27;8.15;;;;;;;16.16;19.64;101589.47;5045575;28;20085;-61
2022/03/14 10:59:49;;;;;;;9.20;5.47;;;;;;;16.52;19.13;101586.38;5045407;28;20181;-62
2022/03/14 11:02:21;;;;;;;9.60;5.97;;;;;;;16.20;19.76;101585.91;5045073;28;20428;-61
2022/03/14 11:04:49;;;;;;;;;;;;;;;16.16;19.66;101589.47;5045742;28;20017;-61
2022/03/14 11:07:28;;;;;;;10.70;5.93;;;;;;;16.00;19.77;101591.41;5045324;28;19913;-61
2022/03/14 11:09:58;;;;;;;8.48;5.18;;;;;;;15.69;20.14;101592.56;5045576;28;20101;-61
2022/03/14 11:12:28;;;;;;;11.68;6.38;;;;;;;15.39;20.61;101589.41;5045074;28;20027;-61
2022/03/14 11:15:01;;;;;;;5.32;3.70;;;;;;;15.61;20.53;101588.31;5045046;28;20032;-61
2022/03/14 11:17:29;;;;;;;6.90;3.55;;;;;;;15.78;20.34;101576.78;5045078;28;20025;-62
2022/03/14 11:19:56;;;;;;;14.30;8.00;;;;;;;15.75;20.68;101592.50;5045123;28;20095;-62
2022/03/14 11:22:22;;;;;;;12.63;7.63;;;;;;;16.57;19.99;101585.41;5045030;28;20026;-62